Terminal Aerodrome Forecast
Issued by NWS Charleston, WV

Current Version | Previous Version | Graphics & Text | Print | Product List | Glossary On
Versions: 1 2 3 4 5 6 7 8 9 10 11 12 13 14 15 16 17 18 19 20 21 22 23
000
FTUS41 KRLX 262300
TAFHTS
TAF
KHTS 262339Z 2700/2724 32008KT 6SM BR OVC015
     FM270400 31004KT 6SM BR BKN012
     FM271000 33004KT P6SM BKN015
     FM271600 32005KT 6SM BR BKN010=

USA.gov is the U.S. government's official web portal to all federal, state and local government web resources and services.